Iliamna, AK (99606)

7:25 AM AKDT on October 24, 2014 (GMT -0800)
Iliamna | Change Station
CLOSE
Current Station
Airport
Location: Iliamna,
Elevation: 161 ft
Nearby Weather Stations

Elev 161 ft 59.75 °N, 154.91 °W | Updated 32 minutes ago

Light Snow
Light Snow Mist
31 °F
Feels Like 23 °F
N
9
Wind Variable Wind from North

Today
High -- | Low -- °F
--% Chance of Precip.
Yesterday
High -- | Low -- °F
Precip. -- in
9:22 AM 6:47 PM
New Moon, 1% visible
Pressure 29.82 in
Visibility 3.0 miles
Clouds Overcast 3600 ft
Windchill 23 °F
Dew Point 29 °F
Humidity 92%
Rainfall 0.01 in
Snow Depth Not available.
UV 0 out of 12
Pollen Not available.
Air Quality Not available.
Flu Activity Sporadic
METAR PAIL 241453Z 36008KT 3SM -SN BR OVC036 M01/M02 A2981 RMK AO2 SLP096 P0000 60001 T10061017 53001

More Conditions Fewer Conditions

Pressure 29.82 in
Visibility 3.0 miles
Clouds Overcast 3600 ft
Windchill 23 °F
Dew Point 29 °F
Humidity 92%
Rainfall 0.01 in
Snow Depth Not available.
UV 0 out of 12
Pollen Not available.
Air Quality Not available.
Flu Activity Sporadic
METAR PAIL 241453Z 36008KT 3SM -SN BR OVC036 M01/M02 A2981 RMK AO2 SLP096 P0000 60001 T10061017 53001

More Conditions Fewer Conditions

10-Day Weather Forecast

Almanac

Astronomy

Oct. 24, 2014 Rise Set
Actual Time 9:22 AM AKDT 6:47 PM AKDT
Civil Twilight 8:39 AM AKDT 7:30 PM AKDT
Nautical Twilight 7:51 AM AKDT 8:18 PM AKDT
Astronomical Twilight 7:03 AM AKDT 9:05 PM AKDT
Moon 10:23 AM AKDT 7:20 PM AKDT
Length of Visible Light 10h 50m
Length of Day
9h 24m
Tomorrow will be 5m 11s shorter.
New Moon, 1% of the Moon is Illuminated
Today
New Moon
Oct 30
First Quarter
Nov 6
Full
Nov 14
Last Quarter
Nov 22
New

Today's Extremes

State Highs State Lows

Community

WunderPhotos

Upload Photos

1,764,588 photos uploaded!

WunderBlogs® & News

By Dr. Jeff Masters
Director of Meteorology, Weather Underground
By Kari Strenfel
Meteorologist, Weather Underground
By Christopher C. Burt
Weather Historian, Weather Underground
October 24, 2014
October 24, 2014
October 24, 2014

Nearby

Snow Depth

Station Depth Elevation
Mcneil Canyon 1 in 1320 ft
Port Graham 0 in 300 ft
MF Bradley River 0 in 2300 ft
Cooper Lake 1 in 1200 ft
Summit Creek 3 in 1400 ft

Earthquake Activity

City Distance Mag. Time & Date
No recent earthquake activity has been reported nearby.
Minimum magnitude displayed is 2.5.

Coastal Water Temperatures

Place Temperature
No Stations Reporting

Nearby Weather Stations